createdAt,value
2023-06-10T00:00:37.494Z,74.65
2023-06-10T00:03:06.007Z,75.03
2023-06-10T00:05:36.395Z,75.15
2023-06-10T00:08:08.408Z,74.68
2023-06-10T00:10:37.649Z,74.77
2023-06-10T00:13:06.011Z,75.06
2023-06-10T00:15:34.863Z,74.06
2023-06-10T00:18:03.517Z,74.54
2023-06-10T00:20:32.810Z,74.92
2023-06-10T00:23:02.432Z,74.83
2023-06-10T00:25:32.847Z,74.96
2023-06-10T00:28:00.579Z,74.97
2023-06-10T00:30:31.111Z,74.82
2023-06-10T00:32:59.095Z,74.35
2023-06-10T00:35:28.597Z,74.97
2023-06-10T00:37:56.548Z,74.94
2023-06-10T00:40:25.481Z,75.20
2023-06-10T00:42:54.855Z,75.42
2023-06-10T00:45:23.647Z,75.33
2023-06-10T00:47:53.629Z,75.77
2023-06-10T00:50:21.815Z,75.22
2023-06-10T00:52:53.447Z,75.26
2023-06-10T00:55:24.480Z,74.70
2023-06-10T00:57:56.500Z,74.83
2023-06-10T01:00:24.560Z,75.27
2023-06-10T01:02:53.669Z,74.26
2023-06-10T01:05:22.900Z,74.48
2023-06-10T01:08:00.464Z,73.97
2023-06-10T01:10:35.053Z,74.92
2023-06-10T01:13:08.488Z,74.20
2023-06-10T01:15:37.678Z,74.62
2023-06-10T01:18:11.253Z,75.01
2023-06-10T01:20:41.149Z,75.02
2023-06-10T01:23:11.539Z,75.09
2023-06-10T01:25:41.216Z,75.15
2023-06-10T01:28:15.474Z,75.20
2023-06-10T01:30:50.657Z,75.46
2023-06-10T01:33:26.146Z,75.86
2023-06-10T01:35:58.552Z,75.46
2023-06-10T01:38:31.891Z,76.21
2023-06-10T01:41:00.413Z,76.07
2023-06-10T01:43:28.942Z,75.78
2023-06-10T01:45:56.934Z,75.58
2023-06-10T01:48:25.892Z,76.04
2023-06-10T01:50:54.090Z,76.16
2023-06-10T01:53:23.099Z,76.47
2023-06-10T01:55:52.865Z,76.62
2023-06-10T01:58:21.362Z,76.34
2023-06-10T02:00:49.633Z,77.09
2023-06-10T02:03:18.859Z,77.86
2023-06-10T02:05:46.972Z,78.00
2023-06-10T02:08:18.173Z,77.56
2023-06-10T02:10:46.224Z,77.63
2023-06-10T02:13:16.514Z,77.38
2023-06-10T02:15:44.967Z,77.18
2023-06-10T02:18:14.700Z,77.11
2023-06-10T02:20:42.673Z,77.15
2023-06-10T02:23:11.618Z,77.65
2023-06-10T02:25:39.618Z,77.71
2023-06-10T02:28:08.141Z,77.65
2023-06-10T02:30:38.461Z,77.32
2023-06-10T02:33:06.327Z,77.14
2023-06-10T02:35:35.000Z,77.13
2023-06-10T02:38:03.066Z,77.41
2023-06-10T02:40:32.344Z,77.66
2023-06-10T02:43:00.484Z,78.16
2023-06-10T02:45:31.079Z,77.97
2023-06-10T02:48:02.188Z,78.04
2023-06-10T02:50:32.308Z,79.15
2023-06-10T02:53:12.374Z,78.45
2023-06-10T02:55:45.698Z,78.73
2023-06-10T02:58:16.606Z,78.94
2023-06-10T03:00:46.694Z,78.92
2023-06-10T03:03:17.143Z,79.03
2023-06-10T03:05:55.088Z,79.26
2023-06-10T03:08:24.564Z,79.11
2023-06-10T03:10:52.685Z,78.76
2023-06-10T03:13:22.151Z,78.61
2023-06-10T03:15:51.199Z,78.31
2023-06-10T03:18:25.235Z,78.11
2023-06-10T03:20:54.358Z,77.84
2023-06-10T03:23:24.006Z,78.20
2023-06-10T03:25:53.174Z,78.53
2023-06-10T03:28:22.083Z,78.76
2023-06-10T03:30:51.243Z,78.78
2023-06-10T03:33:19.321Z,78.78
2023-06-10T03:35:49.381Z,79.61
2023-06-10T03:38:17.520Z,79.24
2023-06-10T03:40:46.203Z,78.70
2023-06-10T03:43:14.374Z,78.29
2023-06-10T03:45:43.104Z,78.44
2023-06-10T03:48:12.728Z,78.02
2023-06-10T03:50:52.305Z,77.66
2023-06-10T03:53:22.118Z,77.43
2023-06-10T03:55:51.381Z,77.66
2023-06-10T03:58:23.998Z,77.64
2023-06-10T04:00:52.054Z,77.83
2023-06-10T04:03:25.358Z,78.17
2023-06-10T04:05:55.714Z,78.41
2023-06-10T04:08:27.834Z,78.28
2023-06-10T04:10:55.982Z,78.20
2023-06-10T04:13:24.911Z,76.97
2023-06-10T04:15:56.729Z,77.27
2023-06-10T04:18:25.682Z,76.86
2023-06-10T04:20:58.215Z,76.23
2023-06-10T04:23:27.334Z,76.59
2023-06-10T04:25:55.582Z,76.20
2023-06-10T04:28:25.190Z,74.82
2023-06-10T04:30:53.163Z,74.37
2023-06-10T04:33:22.178Z,73.63
2023-06-10T04:35:50.296Z,74.61
2023-06-10T04:38:22.107Z,73.98
2023-06-10T04:40:50.210Z,73.99
2023-06-10T04:43:19.994Z,72.58
2023-06-10T04:45:48.770Z,72.75
2023-06-10T04:48:17.976Z,72.78
2023-06-10T04:50:45.961Z,73.29
2023-06-10T04:53:15.768Z,72.60
2023-06-10T04:55:49.336Z,71.74
2023-06-10T04:58:18.314Z,71.30
2023-06-10T05:00:46.267Z,71.13
2023-06-10T05:03:14.884Z,70.63
2023-06-10T05:05:42.951Z,70.28
2023-06-10T05:08:11.846Z,70.54
2023-06-10T05:10:39.815Z,70.42
2023-06-10T05:13:10.164Z,69.43
2023-06-10T05:15:38.140Z,69.34
2023-06-10T05:18:07.215Z,68.83
2023-06-10T05:20:35.231Z,68.78
2023-06-10T05:23:04.569Z,68.35
2023-06-10T05:25:33.637Z,68.43
2023-06-10T05:28:02.656Z,67.51
2023-06-10T05:30:32.102Z,67.13
2023-06-10T05:33:00.856Z,67.22
2023-06-10T05:35:28.839Z,65.08
2023-06-10T05:37:57.338Z,66.00
2023-06-10T05:40:25.508Z,66.08
2023-06-10T05:42:53.552Z,65.81
2023-06-10T05:45:22.021Z,66.61
2023-06-10T05:47:51.973Z,65.28
2023-06-10T05:50:21.086Z,64.79
2023-06-10T05:52:49.118Z,63.34
2023-06-10T05:55:17.555Z,63.79
2023-06-10T05:57:45.522Z,62.48
2023-06-10T06:00:15.174Z,62.67
2023-06-10T06:02:43.797Z,62.34
2023-06-10T06:05:14.285Z,61.67
2023-06-10T06:07:42.550Z,61.51
2023-06-10T06:10:11.858Z,60.82
2023-06-10T06:12:40.119Z,59.37
2023-06-10T06:15:10.826Z,60.36
2023-06-10T06:17:39.220Z,59.84
2023-06-10T06:20:09.258Z,61.06
2023-06-10T06:22:38.684Z,61.24
2023-06-10T06:25:09.131Z,58.56
2023-06-10T06:27:37.730Z,58.05
2023-06-10T06:30:07.265Z,58.04
2023-06-10T06:32:35.818Z,58.16
2023-06-10T06:35:06.598Z,58.04
2023-06-10T06:37:34.905Z,56.66
2023-06-10T06:40:28.505Z,56.69
2023-06-10T06:42:56.529Z,56.29
2023-06-10T06:45:43.940Z,56.92
2023-06-10T06:48:12.083Z,57.01
2023-06-10T06:50:42.790Z,56.74
2023-06-10T06:53:10.788Z,56.37
2023-06-10T06:55:41.114Z,58.27
2023-06-10T06:58:09.218Z,57.85
2023-06-10T07:00:37.740Z,56.08
2023-06-10T07:03:05.909Z,55.29
2023-06-10T07:05:35.047Z,55.46
2023-06-10T07:08:03.132Z,54.91
2023-06-10T07:10:32.120Z,56.50
2023-06-10T07:13:01.461Z,56.72
2023-06-10T07:15:29.940Z,56.79
2023-06-10T07:17:58.040Z,55.54
2023-06-10T07:20:26.535Z,56.62
2023-06-10T07:22:54.724Z,55.79
2023-06-10T07:25:23.439Z,54.64
2023-06-10T07:27:51.632Z,56.75
2023-06-10T07:30:21.588Z,56.57
2023-06-10T07:32:49.646Z,55.42
2023-06-10T07:35:18.793Z,54.15
2023-06-10T07:37:46.877Z,54.13
2023-06-10T07:40:15.641Z,54.65
2023-06-10T07:42:44.307Z,54.36
2023-06-10T07:45:13.473Z,53.55
2023-06-10T07:47:42.951Z,53.24
2023-06-10T07:50:12.083Z,53.19
2023-06-10T07:52:41.013Z,53.29
2023-06-10T07:55:09.822Z,55.21
2023-06-10T07:57:40.076Z,54.94
2023-06-10T08:00:09.324Z,54.50
2023-06-10T08:02:45.173Z,54.32
2023-06-10T08:05:13.639Z,54.15
2023-06-10T08:07:43.191Z,54.08
2023-06-10T08:10:12.142Z,54.66
2023-06-10T08:12:41.177Z,53.48
2023-06-10T08:15:11.418Z,53.62
2023-06-10T08:17:40.819Z,53.85
2023-06-10T08:20:10.888Z,53.48
2023-06-10T08:22:41.003Z,53.64
2023-06-10T08:25:10.662Z,54.09
2023-06-10T08:27:38.902Z,52.96
2023-06-10T08:30:09.023Z,54.41
2023-06-10T08:32:37.528Z,52.65
2023-06-10T08:35:06.688Z,53.28
2023-06-10T08:37:37.077Z,53.33
2023-06-10T08:40:06.180Z,52.37
2023-06-10T08:42:41.215Z,52.42
2023-06-10T08:45:11.920Z,52.98
2023-06-10T08:47:44.345Z,53.29
2023-06-10T08:50:12.975Z,51.34
2023-06-10T08:52:45.401Z,51.65
2023-06-10T08:55:16.257Z,51.22
2023-06-10T08:57:46.103Z,50.00
2023-06-10T09:00:15.776Z,48.69
2023-06-10T09:02:44.389Z,47.94
2023-06-10T09:05:13.301Z,49.33
2023-06-10T09:07:42.026Z,48.43
2023-06-10T09:10:13.458Z,48.40
2023-06-10T09:12:42.000Z,48.72
2023-06-10T09:15:12.940Z,49.37
2023-06-10T09:17:42.603Z,49.08
2023-06-10T09:20:11.499Z,48.23
2023-06-10T09:22:40.246Z,49.67
2023-06-10T09:25:10.073Z,48.94
2023-06-10T09:27:50.984Z,48.95
2023-06-10T09:30:28.304Z,47.30
2023-06-10T09:32:58.902Z,47.24
2023-06-10T09:35:28.083Z,48.74
2023-06-10T09:37:58.128Z,47.22
2023-06-10T09:40:26.518Z,46.67
2023-06-10T09:42:58.580Z,46.79
2023-06-10T09:45:32.017Z,46.50
2023-06-10T09:48:00.386Z,44.37
2023-06-10T09:50:28.520Z,45.34
2023-06-10T09:52:56.615Z,44.23
2023-06-10T09:55:26.169Z,44.76
2023-06-10T09:57:57.445Z,45.89
2023-06-10T10:00:27.100Z,45.85
2023-06-10T10:02:55.871Z,45.55
2023-06-10T10:05:25.057Z,45.50
2023-06-10T10:07:54.276Z,44.71
2023-06-10T10:10:23.782Z,44.23
2023-06-10T10:12:58.341Z,43.98
2023-06-10T10:15:33.714Z,43.73
2023-06-10T10:18:08.749Z,45.58
2023-06-10T10:20:44.250Z,44.92
2023-06-10T10:23:14.713Z,46.18
2023-06-10T10:25:45.385Z,43.24
2023-06-10T10:28:17.726Z,43.41
2023-06-10T10:30:53.670Z,43.46
2023-06-10T10:33:25.016Z,44.18
2023-06-10T10:35:55.323Z,40.99
2023-06-10T10:38:24.448Z,41.80
2023-06-10T10:40:54.156Z,40.97
2023-06-10T10:43:23.963Z,37.50
2023-06-10T10:46:01.210Z,39.08
2023-06-10T10:48:36.392Z,38.70
2023-06-10T10:51:27.026Z,38.01
2023-06-10T10:54:14.967Z,38.13
2023-06-10T10:57:13.129Z,37.81
2023-06-10T11:00:03.268Z,37.32
2023-06-10T11:02:40.724Z,38.49
2023-06-10T11:05:10.652Z,38.57
2023-06-10T11:07:39.205Z,37.28
2023-06-10T11:10:11.503Z,38.05
2023-06-10T11:12:55.371Z,39.59
2023-06-10T11:15:28.129Z,38.91
2023-06-10T11:18:15.939Z,38.29
2023-06-10T11:21:05.930Z,37.75
2023-06-10T11:23:36.903Z,37.55
2023-06-10T11:26:20.788Z,38.21
2023-06-10T11:29:10.240Z,39.18
2023-06-10T11:31:58.876Z,38.04
2023-06-10T11:34:28.333Z,39.14
2023-06-10T11:36:56.967Z,39.96
2023-06-10T11:39:27.310Z,39.57
2023-06-10T11:41:57.209Z,40.75
2023-06-10T11:44:31.070Z,39.47
2023-06-10T11:47:00.815Z,39.19
2023-06-10T11:49:29.293Z,38.42
2023-06-10T11:51:57.607Z,40.65
2023-06-10T11:54:26.590Z,39.95
2023-06-10T11:57:00.413Z,39.10
2023-06-10T11:59:30.706Z,39.41
2023-06-10T12:02:00.663Z,39.56
2023-06-10T12:04:28.682Z,39.84
2023-06-10T12:06:57.251Z,39.28
2023-06-10T12:09:27.997Z,38.86
2023-06-10T12:12:00.492Z,39.38
2023-06-10T12:15:06.985Z,38.31
2023-06-10T12:17:40.347Z,38.59
2023-06-10T12:20:11.315Z,38.43
2023-06-10T12:22:44.227Z,38.10
2023-06-10T12:25:13.938Z,37.10
2023-06-10T12:27:52.653Z,36.69
2023-06-10T12:30:22.587Z,35.54
2023-06-10T12:32:53.442Z,36.58
2023-06-10T12:35:23.455Z,35.22
2023-06-10T12:37:58.997Z,33.61
2023-06-10T12:40:31.279Z,34.97
2023-06-10T12:42:59.634Z,34.45
2023-06-10T12:45:32.247Z,33.79
2023-06-10T12:48:10.094Z,34.54
2023-06-10T12:50:40.626Z,32.14
2023-06-10T12:53:09.844Z,32.54
2023-06-10T12:55:38.334Z,33.31
2023-06-10T12:58:06.577Z,31.74
2023-06-10T13:00:36.275Z,30.52
2023-06-10T13:03:06.961Z,30.61
2023-06-10T13:05:38.544Z,29.27
2023-06-10T13:08:07.516Z,28.34
2023-06-10T13:10:35.964Z,28.81
2023-06-10T13:13:06.804Z,27.81
2023-06-10T13:15:39.436Z,30.17
2023-06-10T13:18:10.011Z,28.63
2023-06-10T13:20:39.573Z,27.98
2023-06-10T13:23:07.661Z,27.78
2023-06-10T13:25:36.663Z,26.80
2023-06-10T13:28:04.768Z,27.16
2023-06-10T13:30:33.260Z,26.20
2023-06-10T13:33:01.798Z,26.72
2023-06-10T13:35:29.984Z,28.46
2023-06-10T13:37:59.865Z,27.20
2023-06-10T13:40:28.054Z,27.32
2023-06-10T13:42:56.797Z,25.04
2023-06-10T13:45:25.857Z,25.21
2023-06-10T13:47:54.802Z,26.30
2023-06-10T13:50:22.681Z,25.20
2023-06-10T13:52:50.936Z,25.13
2023-06-10T13:55:21.406Z,25.53
2023-06-10T13:57:49.808Z,25.51
2023-06-10T14:00:18.775Z,25.55
2023-06-10T14:02:47.827Z,26.15
2023-06-10T14:05:16.046Z,25.42
2023-06-10T14:07:44.119Z,25.09
2023-06-10T14:10:12.571Z,25.69
2023-06-10T14:12:43.557Z,23.88
2023-06-10T14:15:12.657Z,23.94
2023-06-10T14:17:41.479Z,24.28
2023-06-10T14:20:10.453Z,24.12
2023-06-10T14:22:39.478Z,23.73
2023-06-10T14:25:08.906Z,25.23
2023-06-10T14:27:37.772Z,25.51
2023-06-10T14:30:08.635Z,24.55
2023-06-10T14:32:37.541Z,24.91
2023-06-10T14:35:06.302Z,25.62
2023-06-10T14:37:35.442Z,25.11
2023-06-10T14:40:03.420Z,23.28
2023-06-10T14:42:33.604Z,23.97
2023-06-10T14:45:02.329Z,23.34
2023-06-10T14:47:32.375Z,24.44
2023-06-10T14:50:00.553Z,23.80
2023-06-10T14:52:29.133Z,25.21
2023-06-10T14:54:58.224Z,24.29
2023-06-10T14:57:26.925Z,23.75
2023-06-10T14:59:54.922Z,24.97
2023-06-10T15:02:23.776Z,24.64
2023-06-10T15:04:53.246Z,24.25
2023-06-10T15:07:21.646Z,25.84
2023-06-10T15:09:49.695Z,24.47
2023-06-10T15:12:18.197Z,25.65
2023-06-10T15:14:46.185Z,23.51
2023-06-10T15:17:14.616Z,23.70
2023-06-10T15:19:43.073Z,24.60
2023-06-10T15:22:13.035Z,24.49
2023-06-10T15:24:41.577Z,24.36
2023-06-10T15:27:09.562Z,24.26
2023-06-10T15:29:38.118Z,24.10
2023-06-10T15:32:06.960Z,24.15
2023-06-10T15:34:35.957Z,23.66
2023-06-10T15:37:04.321Z,25.10
2023-06-10T15:39:34.806Z,25.51
2023-06-10T15:42:02.781Z,23.22
2023-06-10T15:44:31.744Z,25.01
2023-06-10T15:47:00.302Z,24.75
2023-06-10T15:49:28.355Z,23.61
2023-06-10T15:51:56.549Z,24.16
2023-06-10T15:54:24.623Z,24.02
2023-06-10T15:56:53.950Z,23.05
2023-06-10T15:59:22.896Z,24.68
2023-06-10T16:01:50.951Z,24.02
2023-06-10T16:04:19.997Z,24.27
2023-06-10T16:06:49.464Z,23.38
2023-06-10T16:09:18.580Z,23.43
2023-06-10T16:11:46.540Z,24.59
2023-06-10T16:14:16.411Z,23.86
2023-06-10T16:16:44.452Z,23.17
2023-06-10T16:19:12.998Z,24.38
2023-06-10T16:21:41.717Z,25.04
2023-06-10T16:24:11.137Z,23.51
2023-06-10T16:26:39.244Z,24.42
2023-06-10T16:29:08.235Z,26.38
2023-06-10T16:31:37.710Z,25.12
2023-06-10T16:34:06.157Z,24.66
2023-06-10T16:36:34.159Z,24.31
2023-06-10T16:39:03.159Z,23.63
2023-06-10T16:41:31.139Z,23.94
2023-06-10T16:44:02.757Z,25.86
2023-06-10T16:46:33.155Z,25.92
2023-06-10T16:49:02.590Z,23.21
2023-06-10T16:51:31.547Z,24.33
2023-06-10T16:53:59.536Z,24.27
2023-06-10T16:56:28.545Z,24.79
2023-06-10T16:58:56.562Z,23.79
2023-06-10T17:01:25.057Z,23.52
2023-06-10T17:03:53.634Z,23.92
2023-06-10T17:06:23.485Z,23.92
2023-06-10T17:08:52.312Z,24.19
2023-06-10T17:11:23.066Z,24.20
2023-06-10T17:13:51.432Z,25.77
2023-06-10T17:16:20.454Z,25.94
2023-06-10T17:18:48.491Z,25.79
2023-06-10T17:21:16.583Z,25.13
2023-06-10T17:23:46.056Z,26.35
2023-06-10T17:26:15.243Z,26.51
2023-06-10T17:28:43.257Z,27.40
2023-06-10T17:31:12.239Z,28.15
2023-06-10T17:33:40.277Z,28.46
2023-06-10T17:36:09.339Z,28.28
2023-06-10T17:38:37.329Z,27.77
2023-06-10T17:41:08.841Z,29.00
2023-06-10T17:43:36.806Z,29.25
2023-06-10T17:46:05.831Z,30.07
2023-06-10T17:48:33.818Z,28.96
2023-06-10T17:51:02.351Z,28.40
2023-06-10T17:53:30.382Z,30.25
2023-06-10T17:56:01.906Z,30.68
2023-06-10T17:58:31.693Z,30.59
2023-06-10T18:01:01.009Z,30.78
2023-06-10T18:03:29.133Z,31.50
2023-06-10T18:05:57.918Z,31.31
2023-06-10T18:08:25.938Z,30.26
2023-06-10T18:10:54.579Z,31.58
2023-06-10T18:13:22.583Z,32.20
2023-06-10T18:15:52.524Z,32.25
2023-06-10T18:18:20.587Z,32.70
2023-06-10T18:20:49.103Z,32.69
2023-06-10T18:23:17.229Z,33.44
2023-06-10T18:25:45.320Z,34.93
2023-06-10T18:28:14.245Z,35.78
2023-06-10T18:30:42.306Z,36.21
2023-06-10T18:33:12.663Z,37.47
2023-06-10T18:35:40.783Z,36.12
2023-06-10T18:38:09.494Z,36.45
2023-06-10T18:40:37.468Z,36.03
2023-06-10T18:43:06.083Z,36.27
2023-06-10T18:45:34.109Z,36.52
2023-06-10T18:48:03.227Z,38.52
2023-06-10T18:50:32.741Z,39.45
2023-06-10T18:53:01.173Z,40.68
2023-06-10T18:55:33.196Z,40.43
2023-06-10T18:58:01.972Z,40.50
2023-06-10T19:00:30.017Z,40.81
2023-06-10T19:02:58.652Z,40.04
2023-06-10T19:05:26.806Z,38.85
2023-06-10T19:07:56.704Z,39.20
2023-06-10T19:10:24.745Z,38.69
2023-06-10T19:12:53.804Z,38.90
2023-06-10T19:15:22.149Z,40.22
2023-06-10T19:17:52.426Z,40.47
2023-06-10T19:20:20.577Z,40.51
2023-06-10T19:22:48.552Z,43.70
2023-06-10T19:25:20.144Z,41.96
2023-06-10T19:27:49.238Z,41.92
2023-06-10T19:30:17.240Z,42.49
2023-06-10T19:32:46.350Z,42.94
2023-06-10T19:35:14.597Z,42.76
2023-06-10T19:37:43.535Z,43.40
2023-06-10T19:40:12.436Z,43.60
2023-06-10T19:42:42.742Z,43.99
2023-06-10T19:45:11.371Z,44.70
2023-06-10T19:47:40.614Z,44.59
2023-06-10T19:50:09.138Z,44.81
2023-06-10T19:52:37.758Z,45.61
2023-06-10T19:55:06.866Z,45.85
2023-06-10T19:57:35.022Z,46.53
2023-06-10T20:00:05.431Z,47.56
2023-06-10T20:02:41.526Z,47.15
2023-06-10T20:05:10.310Z,47.21
2023-06-10T20:07:38.581Z,47.75
2023-06-10T20:10:07.055Z,48.08
2023-06-10T20:12:35.179Z,48.85
2023-06-10T20:15:04.999Z,50.30
2023-06-10T20:17:33.110Z,50.86
2023-06-10T20:20:01.706Z,52.15
2023-06-10T20:22:29.835Z,54.50
2023-06-10T20:24:57.925Z,55.54
2023-06-10T20:27:26.054Z,56.60
2023-06-10T20:29:57.160Z,56.45
2023-06-10T20:32:29.054Z,56.53
2023-06-10T20:34:58.318Z,57.53
2023-06-10T20:37:26.809Z,59.50
2023-06-10T20:39:55.610Z,59.56
2023-06-10T20:42:23.648Z,59.59
2023-06-10T20:44:52.406Z,59.33
2023-06-10T20:47:20.624Z,59.20
2023-06-10T20:49:50.065Z,58.77
2023-06-10T20:52:18.178Z,59.52
2023-06-10T20:54:46.311Z,59.92
2023-06-10T20:57:14.813Z,59.93
2023-06-10T20:59:42.879Z,60.69
2023-06-10T21:02:11.086Z,61.59
2023-06-10T21:04:39.269Z,61.91
2023-06-10T21:07:09.409Z,62.69
2023-06-10T21:09:37.991Z,62.83
2023-06-10T21:12:07.280Z,62.68
2023-06-10T21:14:35.404Z,62.23
2023-06-10T21:17:03.397Z,62.25
2023-06-10T21:19:31.443Z,63.47
2023-06-10T21:22:01.909Z,64.38
2023-06-10T21:24:32.760Z,65.16
2023-06-10T21:27:01.284Z,65.54
2023-06-10T21:29:29.779Z,65.68
2023-06-10T21:31:58.537Z,66.03
2023-06-10T21:34:27.515Z,65.29
2023-06-10T21:36:56.104Z,65.10
2023-06-10T21:39:24.091Z,65.02
2023-06-10T21:41:53.505Z,65.04
2023-06-10T21:44:22.148Z,65.15
2023-06-10T21:46:50.241Z,65.83
2023-06-10T21:49:19.445Z,65.50
2023-06-10T21:51:47.504Z,65.03
2023-06-10T21:54:15.525Z,65.51
2023-06-10T21:56:48.264Z,66.04
2023-06-10T21:59:19.330Z,66.10
2023-06-10T22:01:47.529Z,65.80
2023-06-10T22:04:16.295Z,65.38
2023-06-10T22:06:45.092Z,65.44
2023-06-10T22:09:13.099Z,66.10
2023-06-10T22:11:41.128Z,66.10
2023-06-10T22:14:09.154Z,65.71
2023-06-10T22:16:38.629Z,66.74
2023-06-10T22:19:08.550Z,66.35
2023-06-10T22:21:37.586Z,66.35
2023-06-10T22:24:07.471Z,65.87
2023-06-10T22:26:52.225Z,66.51
2023-06-10T22:29:21.846Z,66.34
2023-06-10T22:31:51.872Z,65.85
2023-06-10T22:34:20.050Z,67.44
2023-06-10T22:36:48.557Z,67.10
2023-06-10T22:39:17.267Z,67.61
2023-06-10T22:41:45.809Z,66.44
2023-06-10T22:44:14.308Z,66.39
2023-06-10T22:46:43.213Z,65.51
2023-06-10T22:49:13.187Z,65.88
2023-06-10T22:51:42.571Z,65.99
2023-06-10T22:54:11.046Z,66.98
2023-06-10T22:56:39.052Z,67.08
2023-06-10T22:59:08.315Z,66.80
2023-06-10T23:01:36.356Z,67.37
2023-06-10T23:04:05.172Z,67.60
2023-06-10T23:06:35.496Z,67.61
2023-06-10T23:09:03.871Z,67.68
2023-06-10T23:11:32.817Z,68.03
2023-06-10T23:14:00.784Z,68.96
2023-06-10T23:16:29.350Z,69.55
2023-06-10T23:18:57.687Z,69.97
2023-06-10T23:21:30.236Z,69.37
2023-06-10T23:24:01.961Z,69.34
2023-06-10T23:26:30.103Z,69.65
2023-06-10T23:28:58.989Z,69.41
2023-06-10T23:31:27.288Z,69.46
2023-06-10T23:33:56.271Z,68.80
2023-06-10T23:36:24.848Z,69.78
2023-06-10T23:38:53.750Z,70.08
2023-06-10T23:41:23.657Z,70.11
2023-06-10T23:43:51.692Z,70.09
2023-06-10T23:46:20.220Z,70.68
2023-06-10T23:48:49.185Z,71.29
2023-06-10T23:51:17.235Z,71.33
2023-06-10T23:53:45.669Z,71.57
2023-06-10T23:56:15.197Z,71.14
2023-06-10T23:58:44.530Z,71.75
